createdAt,value
2019-02-19T00:00:42.392Z,0.89
2019-02-19T00:03:12.043Z,0.83
2019-02-19T00:05:41.680Z,0.92
2019-02-19T00:08:10.953Z,0.88
2019-02-19T00:10:40.559Z,0.84
2019-02-19T00:13:09.858Z,0.76
2019-02-19T00:15:39.117Z,0.82
2019-02-19T00:18:11.220Z,0.79
2019-02-19T00:20:40.457Z,0.73
2019-02-19T00:23:09.720Z,0.69
2019-02-19T00:25:38.959Z,0.66
2019-02-19T00:28:09.073Z,0.63
2019-02-19T00:30:38.303Z,0.69
2019-02-19T00:33:07.577Z,0.70
2019-02-19T00:35:36.851Z,0.70
2019-02-19T00:38:06.846Z,0.72
2019-02-19T00:40:36.293Z,0.65
2019-02-19T00:43:05.562Z,0.65
2019-02-19T00:45:35.829Z,0.56
2019-02-19T00:48:05.148Z,0.59
2019-02-19T00:50:34.489Z,0.53
2019-02-19T00:53:04.294Z,0.39
2019-02-19T00:55:33.555Z,0.40
2019-02-19T00:58:05.527Z,0.39
2019-02-19T01:00:34.804Z,0.40
2019-02-19T01:03:04.378Z,0.37
2019-02-19T01:05:35.104Z,0.29
2019-02-19T01:08:07.187Z,0.19
2019-02-19T01:10:37.230Z,0.22
2019-02-19T01:13:06.787Z,0.26
2019-02-19T01:15:37.063Z,0.18
2019-02-19T01:18:07.122Z,0.19
2019-02-19T01:20:36.352Z,0.26
2019-02-19T01:23:07.843Z,0.23
2019-02-19T01:25:37.759Z,0.23
2019-02-19T01:28:08.239Z,0.22
2019-02-19T01:30:37.470Z,0.19
2019-02-19T01:33:09.087Z,0.20
2019-02-19T01:35:38.315Z,0.20
2019-02-19T01:38:07.737Z,0.21
2019-02-19T01:40:37.217Z,0.20
2019-02-19T01:43:07.196Z,0.18
2019-02-19T01:45:39.109Z,0.20
2019-02-19T01:48:08.358Z,0.10
2019-02-19T01:50:37.601Z,0.02
2019-02-19T01:53:07.177Z,-0.04
2019-02-19T01:55:38.061Z,-0.23
2019-02-19T01:58:09.761Z,-0.34
2019-02-19T02:00:39.030Z,-0.29
2019-02-19T02:03:08.530Z,-0.20
2019-02-19T02:05:39.570Z,-0.15
2019-02-19T02:08:10.242Z,-0.11
2019-02-19T02:10:39.911Z,-0.08
2019-02-19T02:13:10.073Z,-0.10
2019-02-19T02:15:42.708Z,-0.05
2019-02-19T02:18:10.313Z,-0.13
2019-02-19T02:20:43.559Z,-0.17
2019-02-19T02:23:14.459Z,-0.20
2019-02-19T02:25:43.724Z,-0.26
2019-02-19T02:28:12.962Z,-0.23
2019-02-19T02:30:44.725Z,-0.23
2019-02-19T02:33:15.485Z,-0.24
2019-02-19T02:35:45.338Z,-0.28
2019-02-19T02:38:14.604Z,-0.23
2019-02-19T02:40:43.903Z,-0.23
2019-02-19T02:43:13.312Z,-0.20
2019-02-19T02:45:52.423Z,-0.25
2019-02-19T02:48:16.596Z,-0.30
2019-02-19T02:50:47.570Z,-0.45
2019-02-19T02:53:16.849Z,-0.44
2019-02-19T02:55:49.849Z,-0.39
2019-02-19T02:58:19.109Z,-0.34
2019-02-19T03:00:48.392Z,-0.34
2019-02-19T03:03:18.409Z,-0.36
2019-02-19T03:06:24.718Z,-0.37
2019-02-19T03:08:54.003Z,-0.42
2019-02-19T03:11:23.247Z,-0.41
2019-02-19T03:13:53.557Z,-0.39
2019-02-19T03:16:24.906Z,-0.38
2019-02-19T03:18:54.132Z,-0.37
2019-02-19T03:21:26.344Z,-0.43
2019-02-19T03:23:56.333Z,-0.39
2019-02-19T03:26:28.602Z,-0.45
2019-02-19T03:28:57.835Z,-0.40
2019-02-19T03:31:27.169Z,-0.41
2019-02-19T03:33:57.641Z,-0.42
2019-02-19T03:36:26.877Z,-0.44
2019-02-19T03:38:55.953Z,-0.42
2019-02-19T03:41:25.184Z,-0.45
2019-02-19T03:43:56.118Z,-0.46
2019-02-19T03:46:27.763Z,-0.51
2019-02-19T03:48:58.790Z,-0.54
2019-02-19T03:51:29.589Z,-0.57
2019-02-19T03:53:59.175Z,-0.66
2019-02-19T03:56:28.443Z,-0.77
2019-02-19T03:58:57.695Z,-1.05
2019-02-19T04:01:28.527Z,-1.20
2019-02-19T04:04:00.784Z,-1.20
2019-02-19T04:06:30.063Z,-1.27
2019-02-19T04:08:59.298Z,-1.36
2019-02-19T04:11:30.680Z,-1.41
2019-02-19T04:14:00.781Z,-1.37
2019-02-19T04:16:30.911Z,-1.25
2019-02-19T04:19:00.152Z,-1.13
2019-02-19T04:21:33.397Z,-1.05
2019-02-19T04:24:06.184Z,-1.06
2019-02-19T04:26:36.559Z,-1.05
2019-02-19T04:29:07.426Z,-0.97
2019-02-19T04:31:36.993Z,-0.94
2019-02-19T04:34:06.661Z,-0.95
2019-02-19T04:36:36.686Z,-0.94
2019-02-19T04:39:17.408Z,-0.91
2019-02-19T04:41:48.730Z,-0.88
2019-02-19T04:44:21.090Z,-0.99
2019-02-19T04:46:50.582Z,-1.07
2019-02-19T04:49:20.418Z,-1.04
2019-02-19T04:51:51.427Z,-1.02
2019-02-19T04:54:31.799Z,-1.12
2019-02-19T04:57:01.321Z,-1.15
2019-02-19T04:59:34.769Z,-1.02
2019-02-19T05:02:05.863Z,-0.99
2019-02-19T05:04:36.869Z,-0.96
2019-02-19T05:07:10.318Z,-0.99
2019-02-19T05:09:45.950Z,-1.00
2019-02-19T05:12:16.671Z,-1.07
2019-02-19T05:14:46.152Z,-1.16
2019-02-19T05:17:16.396Z,-1.12
2019-02-19T05:19:51.956Z,-1.15
2019-02-19T05:22:32.998Z,-1.12
2019-02-19T05:25:02.075Z,-1.13
2019-02-19T05:27:32.524Z,-1.04
2019-02-19T05:30:03.043Z,-1.07
2019-02-19T05:32:32.647Z,-1.07
2019-02-19T05:35:02.900Z,-1.09
2019-02-19T05:37:32.207Z,-1.12
2019-02-19T05:40:02.604Z,-1.08
2019-02-19T05:42:31.906Z,-1.02
2019-02-19T05:45:01.165Z,-1.03
2019-02-19T05:47:32.427Z,-0.98
2019-02-19T05:50:01.490Z,-1.01
2019-02-19T05:52:32.893Z,-1.01
2019-02-19T05:55:09.708Z,-0.99
2019-02-19T05:57:41.782Z,-0.99
2019-02-19T06:00:15.574Z,-0.98
2019-02-19T06:02:47.089Z,-0.99
2019-02-19T06:05:16.322Z,-1.01
2019-02-19T06:07:45.677Z,-1.02
2019-02-19T06:10:15.394Z,-0.98
2019-02-19T06:12:45.404Z,-1.00
2019-02-19T06:15:15.755Z,-0.97
2019-02-19T06:17:47.151Z,-0.92
2019-02-19T06:20:17.144Z,-0.93
2019-02-19T06:22:52.643Z,-0.91
2019-02-19T06:25:22.695Z,-0.93
2019-02-19T06:27:51.993Z,-0.84
2019-02-19T06:30:22.446Z,-0.79
2019-02-19T06:32:51.711Z,-0.77
2019-02-19T06:35:24.474Z,-0.75
2019-02-19T06:37:54.167Z,-0.70
2019-02-19T06:40:25.994Z,-0.68
2019-02-19T06:42:59.920Z,-0.65
2019-02-19T06:45:29.203Z,-0.61
2019-02-19T06:47:58.972Z,-0.56
2019-02-19T06:50:28.205Z,-0.50
2019-02-19T06:52:58.369Z,-0.35
2019-02-19T06:55:27.950Z,-0.31
2019-02-19T06:57:58.293Z,-0.10
2019-02-19T07:00:27.382Z,-0.01
2019-02-19T07:03:15.890Z,0.24
2019-02-19T07:05:49.236Z,0.35
2019-02-19T07:08:19.343Z,0.34
2019-02-19T07:10:51.448Z,0.60
2019-02-19T07:13:20.909Z,0.86
2019-02-19T07:15:52.130Z,1.19
2019-02-19T07:18:23.485Z,1.29
2019-02-19T07:20:53.000Z,1.43
2019-02-19T07:23:22.323Z,1.44
2019-02-19T07:25:55.774Z,1.54
2019-02-19T07:28:25.293Z,1.63
2019-02-19T07:30:55.735Z,1.66
2019-02-19T07:33:28.944Z,1.90
2019-02-19T07:36:00.677Z,2.22
2019-02-19T07:38:34.472Z,2.72
2019-02-19T07:41:06.960Z,3.71
2019-02-19T07:43:38.860Z,5.05
2019-02-19T07:46:10.869Z,6.58
2019-02-19T07:48:47.670Z,7.63
2019-02-19T07:51:21.185Z,8.12
2019-02-19T07:53:52.562Z,7.56
2019-02-19T07:56:24.669Z,7.21
2019-02-19T07:58:54.329Z,7.10
2019-02-19T08:01:23.854Z,7.32
2019-02-19T08:03:56.630Z,7.91
2019-02-19T08:06:28.095Z,8.01
2019-02-19T08:08:58.223Z,7.70
2019-02-19T08:11:27.432Z,8.56
2019-02-19T08:13:57.657Z,9.01
2019-02-19T08:16:29.317Z,8.81
2019-02-19T08:19:00.448Z,8.74
2019-02-19T08:21:30.019Z,8.96
2019-02-19T08:24:03.757Z,9.59
2019-02-19T08:26:34.656Z,9.88
2019-02-19T08:29:13.919Z,10.27
2019-02-19T08:31:42.335Z,9.98
2019-02-19T08:34:12.687Z,9.83
2019-02-19T08:36:43.389Z,9.65
2019-02-19T08:39:14.803Z,9.42
2019-02-19T08:41:44.054Z,10.42
2019-02-19T08:44:14.158Z,10.98
2019-02-19T08:46:45.390Z,10.86
2019-02-19T08:49:16.914Z,11.91
2019-02-19T08:51:55.834Z,11.07
2019-02-19T08:54:23.478Z,10.61
2019-02-19T08:56:54.917Z,10.07
2019-02-19T09:02:52.478Z,9.49
2019-02-19T09:05:21.703Z,9.39
2019-02-19T09:07:52.817Z,9.16
2019-02-19T09:10:22.354Z,9.57
2019-02-19T09:12:54.187Z,10.01
2019-02-19T09:15:23.425Z,9.57
2019-02-19T09:17:52.686Z,10.07
2019-02-19T09:20:23.806Z,10.90
2019-02-19T09:22:53.089Z,10.99
2019-02-19T09:25:24.076Z,11.53
2019-02-19T09:27:53.858Z,11.41
2019-02-19T09:30:23.621Z,11.13
2019-02-19T09:32:55.095Z,11.20
2019-02-19T09:35:28.870Z,11.42
2019-02-19T09:37:58.134Z,12.82
2019-02-19T09:40:27.374Z,14.06
2019-02-19T09:42:58.299Z,14.20
2019-02-19T09:45:29.577Z,14.28
2019-02-19T09:48:01.274Z,13.65
2019-02-19T09:50:31.260Z,13.90
2019-02-19T09:53:04.234Z,13.95
2019-02-19T09:55:33.508Z,14.82
2019-02-19T09:58:05.795Z,14.75
2019-02-19T10:00:38.265Z,14.84
2019-02-19T10:03:08.279Z,14.71
2019-02-19T10:05:37.544Z,15.33
2019-02-19T10:08:06.783Z,15.49
2019-02-19T10:10:36.043Z,14.74
2019-02-19T10:13:08.679Z,14.03
2019-02-19T10:15:38.350Z,14.27
2019-02-19T10:18:10.481Z,13.83
2019-02-19T10:20:40.305Z,13.48
2019-02-19T10:23:14.705Z,13.55
2019-02-19T10:25:44.778Z,13.51
2019-02-19T10:28:16.945Z,12.98
2019-02-19T10:30:48.578Z,13.12
2019-02-19T10:33:17.798Z,13.56
2019-02-19T10:35:49.987Z,13.43
2019-02-19T10:38:30.003Z,13.37
2019-02-19T10:41:02.912Z,13.30
2019-02-19T10:43:35.701Z,13.23
2019-02-19T10:46:07.503Z,13.35
2019-02-19T10:48:38.303Z,13.55
2019-02-19T10:51:07.863Z,13.47
2019-02-19T10:53:37.101Z,13.77
2019-02-19T10:56:07.988Z,13.81
2019-02-19T10:58:40.128Z,13.84
2019-02-19T11:01:11.718Z,14.01
2019-02-19T11:03:41.280Z,13.49
2019-02-19T11:06:11.725Z,13.74
2019-02-19T11:08:40.961Z,13.60
2019-02-19T11:11:10.862Z,13.49
2019-02-19T11:13:40.094Z,13.25
2019-02-19T11:19:38.119Z,13.05
2019-02-19T11:22:10.706Z,14.00
2019-02-19T11:24:40.719Z,13.68
2019-02-19T11:34:38.121Z,13.64
2019-02-19T11:37:07.398Z,13.11
2019-02-19T11:39:36.858Z,12.90
2019-02-19T11:42:06.136Z,13.11
2019-02-19T11:44:35.328Z,13.46
2019-02-19T11:47:04.593Z,13.73
2019-02-19T11:49:33.804Z,13.89
2019-02-19T11:52:03.445Z,14.19
2019-02-19T11:54:34.978Z,14.61
2019-02-19T11:57:04.228Z,14.61
2019-02-19T11:59:33.455Z,14.84
2019-02-19T12:02:04.661Z,15.20
2019-02-19T12:04:34.183Z,14.77
2019-02-19T12:07:04.934Z,14.87
2019-02-19T12:09:36.552Z,15.19
2019-02-19T12:12:08.195Z,15.99
2019-02-19T12:14:38.867Z,16.17
2019-02-19T12:17:09.018Z,15.67
2019-02-19T12:19:38.248Z,14.99
2019-02-19T12:22:08.535Z,14.50
2019-02-19T12:24:37.795Z,14.16
2019-02-19T12:27:08.922Z,13.41
2019-02-19T12:29:40.981Z,12.78
2019-02-19T12:32:10.529Z,13.05
2019-02-19T12:34:40.855Z,13.11
2019-02-19T12:37:11.258Z,13.17
2019-02-19T12:39:42.521Z,13.31
2019-02-19T12:42:11.738Z,13.08
2019-02-19T12:44:40.987Z,13.00
2019-02-19T12:47:14.174Z,13.18
2019-02-19T12:49:43.724Z,12.54
2019-02-19T12:52:14.569Z,11.86
2019-02-19T12:54:43.818Z,11.86
2019-02-19T12:57:14.688Z,11.87
2019-02-19T12:59:43.996Z,11.92
2019-02-19T13:02:13.235Z,11.89
2019-02-19T13:04:42.484Z,11.86
2019-02-19T13:07:13.145Z,12.16
2019-02-19T13:09:42.452Z,12.44
2019-02-19T13:12:14.484Z,12.76
2019-02-19T13:14:46.017Z,13.12
2019-02-19T13:17:15.226Z,13.39
2019-02-19T13:19:44.472Z,14.04
2019-02-19T13:22:14.705Z,13.94
2019-02-19T13:24:43.952Z,13.38
2019-02-19T13:27:15.182Z,12.91
2019-02-19T13:29:44.467Z,12.66
2019-02-19T13:32:13.683Z,13.03
2019-02-19T13:34:44.071Z,13.37
2019-02-19T13:37:13.275Z,13.75
2019-02-19T13:39:42.547Z,14.27
2019-02-19T13:42:12.919Z,13.90
2019-02-19T13:44:43.777Z,13.66
2019-02-19T13:47:12.990Z,13.56
2019-02-19T13:49:42.637Z,13.29
2019-02-19T13:52:22.735Z,13.34
2019-02-19T13:54:56.759Z,13.11
2019-02-19T13:57:26.016Z,12.79
2019-02-19T13:59:55.324Z,12.45
2019-02-19T14:02:25.616Z,12.22
2019-02-19T14:04:54.867Z,11.95
2019-02-19T14:07:25.588Z,11.66
2019-02-19T14:09:54.849Z,11.66
2019-02-19T14:12:24.401Z,11.77
2019-02-19T14:14:58.481Z,11.76
2019-02-19T14:17:28.861Z,11.44
2019-02-19T14:20:17.057Z,11.21
2019-02-19T14:23:10.823Z,11.21
2019-02-19T14:26:01.799Z,11.17
2019-02-19T14:29:03.004Z,11.18
2019-02-19T14:32:06.290Z,11.23
2019-02-19T14:34:55.684Z,11.14
2019-02-19T14:37:47.865Z,10.96
2019-02-19T14:40:42.082Z,10.79
2019-02-19T14:43:21.499Z,10.80
2019-02-19T14:46:13.383Z,10.87
2019-02-19T14:48:57.280Z,10.79
2019-02-19T14:51:46.298Z,10.65
2019-02-19T14:54:33.058Z,10.66
2019-02-19T14:57:18.752Z,10.62
2019-02-19T15:00:06.967Z,10.59
2019-02-19T15:02:57.697Z,10.59
2019-02-19T15:05:47.989Z,10.54
2019-02-19T15:08:40.454Z,10.54
2019-02-19T15:11:34.402Z,10.53
2019-02-19T15:14:34.870Z,10.51
2019-02-19T15:17:23.062Z,10.44
2019-02-19T15:20:11.241Z,10.42
2019-02-19T15:22:58.072Z,10.38
2019-02-19T15:25:44.986Z,10.32
2019-02-19T15:28:45.895Z,10.31
2019-02-19T15:31:36.758Z,10.32
2019-02-19T15:34:24.970Z,10.45
2019-02-19T15:37:15.951Z,10.52
2019-02-19T15:40:10.150Z,10.54
2019-02-19T15:42:53.947Z,10.67
2019-02-19T15:45:32.777Z,10.63
2019-02-19T15:48:10.803Z,10.78
2019-02-19T15:50:57.750Z,10.84
2019-02-19T15:54:04.098Z,10.93
2019-02-19T15:56:52.107Z,10.90
2019-02-19T15:59:39.783Z,10.85
2019-02-19T16:02:33.767Z,10.81
2019-02-19T16:05:37.554Z,10.76
2019-02-19T16:08:25.763Z,10.63
2019-02-19T16:11:05.443Z,10.54
2019-02-19T16:13:45.984Z,10.51
2019-02-19T16:16:31.914Z,10.49
2019-02-19T16:19:23.148Z,10.49
2019-02-19T16:22:14.448Z,10.39
2019-02-19T16:25:19.364Z,10.36
2019-02-19T16:28:07.817Z,10.35
2019-02-19T16:31:14.077Z,10.33
2019-02-19T16:33:50.952Z,10.31
2019-02-19T16:36:32.810Z,10.20
2019-02-19T16:39:19.656Z,10.23
